sensor_id;sensor_type;location;lat;lon;timestamp;P1;durP1;ratioP1;P2;durP2;ratioP2
25810;SDS011;13645;52.460;13.910;2022-11-12T00:00:56;10.07;;;5.28;;
25810;SDS011;13645;52.460;13.910;2022-11-12T00:03:24;13.00;;;5.63;;
25810;SDS011;13645;52.460;13.910;2022-11-12T00:05:51;15.02;;;6.15;;
25810;SDS011;13645;52.460;13.910;2022-11-12T00:08:18;10.52;;;5.13;;
25810;SDS011;13645;52.460;13.910;2022-11-12T00:10:45;13.38;;;5.30;;
25810;SDS011;13645;52.460;13.910;2022-11-12T00:13:12;11.70;;;5.28;;
25810;SDS011;13645;52.460;13.910;2022-11-12T00:15:40;8.93;;;5.20;;
25810;SDS011;13645;52.460;13.910;2022-11-12T00:18:06;7.25;;;4.53;;
25810;SDS011;13645;52.460;13.910;2022-11-12T00:20:33;10.75;;;5.28;;
25810;SDS011;13645;52.460;13.910;2022-11-12T00:23:00;9.20;;;4.55;;
25810;SDS011;13645;52.460;13.910;2022-11-12T00:25:27;9.90;;;4.47;;
25810;SDS011;13645;52.460;13.910;2022-11-12T00:28:01;8.77;;;4.13;;
25810;SDS011;13645;52.460;13.910;2022-11-12T00:30:29;10.30;;;4.80;;
25810;SDS011;13645;52.460;13.910;2022-11-12T00:32:56;9.90;;;4.30;;
25810;SDS011;13645;52.460;13.910;2022-11-12T00:35:27;7.82;;;4.13;;
25810;SDS011;13645;52.460;13.910;2022-11-12T00:37:55;6.75;;;4.25;;
25810;SDS011;13645;52.460;13.910;2022-11-12T00:40:23;5.97;;;4.47;;
25810;SDS011;13645;52.460;13.910;2022-11-12T00:42:50;7.97;;;4.25;;
25810;SDS011;13645;52.460;13.910;2022-11-12T00:45:18;10.07;;;3.95;;
25810;SDS011;13645;52.460;13.910;2022-11-12T00:47:45;7.75;;;3.88;;
25810;SDS011;13645;52.460;13.910;2022-11-12T00:50:12;6.32;;;3.80;;
25810;SDS011;13645;52.460;13.910;2022-11-12T00:52:40;6.72;;;3.95;;
25810;SDS011;13645;52.460;13.910;2022-11-12T00:55:07;6.95;;;3.33;;
25810;SDS011;13645;52.460;13.910;2022-11-12T00:57:34;8.73;;;3.38;;
25810;SDS011;13645;52.460;13.910;2022-11-12T01:00:01;5.05;;;3.63;;
25810;SDS011;13645;52.460;13.910;2022-11-12T01:02:29;5.22;;;3.15;;
25810;SDS011;13645;52.460;13.910;2022-11-12T01:04:58;7.70;;;3.08;;
25810;SDS011;13645;52.460;13.910;2022-11-12T01:07:26;6.57;;;3.10;;
25810;SDS011;13645;52.460;13.910;2022-11-12T01:09:52;4.40;;;2.80;;
25810;SDS011;13645;52.460;13.910;2022-11-12T01:12:19;6.25;;;2.95;;
25810;SDS011;13645;52.460;13.910;2022-11-12T01:14:46;4.43;;;2.67;;
25810;SDS011;13645;52.460;13.910;2022-11-12T01:17:13;5.95;;;2.97;;
25810;SDS011;13645;52.460;13.910;2022-11-12T01:19:39;3.53;;;2.20;;
25810;SDS011;13645;52.460;13.910;2022-11-12T01:22:06;4.35;;;2.58;;
25810;SDS011;13645;52.460;13.910;2022-11-12T01:24:33;7.20;;;2.90;;
25810;SDS011;13645;52.460;13.910;2022-11-12T01:26:59;6.53;;;3.10;;
25810;SDS011;13645;52.460;13.910;2022-11-12T01:29:26;4.80;;;3.10;;
25810;SDS011;13645;52.460;13.910;2022-11-12T01:31:53;5.13;;;2.40;;
25810;SDS011;13645;52.460;13.910;2022-11-12T01:34:19;4.35;;;2.47;;
25810;SDS011;13645;52.460;13.910;2022-11-12T01:36:46;5.45;;;2.72;;
25810;SDS011;13645;52.460;13.910;2022-11-12T01:39:13;4.60;;;2.42;;
25810;SDS011;13645;52.460;13.910;2022-11-12T01:41:40;4.82;;;2.70;;
25810;SDS011;13645;52.460;13.910;2022-11-12T01:44:15;10.05;;;2.80;;
25810;SDS011;13645;52.460;13.910;2022-11-12T01:52:30;4.28;;;2.78;;
25810;SDS011;13645;52.460;13.910;2022-11-12T01:55:05;4.13;;;2.85;;
25810;SDS011;13645;52.460;13.910;2022-11-12T01:57:39;6.45;;;3.05;;
25810;SDS011;13645;52.460;13.910;2022-11-12T02:00:10;4.07;;;2.47;;
25810;SDS011;13645;52.460;13.910;2022-11-12T02:02:38;6.47;;;2.97;;
25810;SDS011;13645;52.460;13.910;2022-11-12T02:05:06;5.63;;;3.00;;
25810;SDS011;13645;52.460;13.910;2022-11-12T02:07:35;5.15;;;2.65;;
25810;SDS011;13645;52.460;13.910;2022-11-12T02:10:04;4.95;;;2.72;;
25810;SDS011;13645;52.460;13.910;2022-11-12T02:12:33;3.80;;;2.70;;
25810;SDS011;13645;52.460;13.910;2022-11-12T02:15:19;5.38;;;2.60;;
25810;SDS011;13645;52.460;13.910;2022-11-12T02:17:46;6.88;;;2.90;;
25810;SDS011;13645;52.460;13.910;2022-11-12T02:20:14;4.78;;;2.92;;
25810;SDS011;13645;52.460;13.910;2022-11-12T02:22:40;5.35;;;2.78;;
25810;SDS011;13645;52.460;13.910;2022-11-12T02:25:10;4.72;;;2.85;;
25810;SDS011;13645;52.460;13.910;2022-11-12T02:30:11;6.88;;;2.90;;
25810;SDS011;13645;52.460;13.910;2022-11-12T02:32:38;6.03;;;2.72;;
25810;SDS011;13645;52.460;13.910;2022-11-12T02:35:05;9.35;;;2.95;;
25810;SDS011;13645;52.460;13.910;2022-11-12T02:37:32;3.50;;;2.63;;
25810;SDS011;13645;52.460;13.910;2022-11-12T02:39:58;4.70;;;3.00;;
25810;SDS011;13645;52.460;13.910;2022-11-12T02:42:25;4.90;;;2.97;;
25810;SDS011;13645;52.460;13.910;2022-11-12T02:44:52;6.30;;;2.63;;
25810;SDS011;13645;52.460;13.910;2022-11-12T02:47:19;6.57;;;3.00;;
25810;SDS011;13645;52.460;13.910;2022-11-12T02:49:45;10.00;;;3.22;;
25810;SDS011;13645;52.460;13.910;2022-11-12T02:52:12;5.03;;;3.00;;
25810;SDS011;13645;52.460;13.910;2022-11-12T02:54:39;5.43;;;3.05;;
25810;SDS011;13645;52.460;13.910;2022-11-12T02:57:05;6.00;;;3.45;;
25810;SDS011;13645;52.460;13.910;2022-11-12T02:59:32;4.60;;;3.03;;
25810;SDS011;13645;52.460;13.910;2022-11-12T03:01:59;7.05;;;3.53;;
25810;SDS011;13645;52.460;13.910;2022-11-12T03:04:25;5.25;;;3.10;;
25810;SDS011;13645;52.460;13.910;2022-11-12T03:06:52;7.50;;;3.22;;
25810;SDS011;13645;52.460;13.910;2022-11-12T03:09:19;7.68;;;3.17;;
25810;SDS011;13645;52.460;13.910;2022-11-12T03:11:45;7.93;;;3.60;;
25810;SDS011;13645;52.460;13.910;2022-11-12T03:14:12;10.93;;;3.13;;
25810;SDS011;13645;52.460;13.910;2022-11-12T03:16:39;7.25;;;3.30;;
25810;SDS011;13645;52.460;13.910;2022-11-12T03:19:06;8.95;;;3.10;;
25810;SDS011;13645;52.460;13.910;2022-11-12T03:21:33;6.07;;;3.20;;
25810;SDS011;13645;52.460;13.910;2022-11-12T03:24:00;6.78;;;3.25;;
25810;SDS011;13645;52.460;13.910;2022-11-12T03:26:27;5.32;;;2.38;;
25810;SDS011;13645;52.460;13.910;2022-11-12T03:29:00;9.50;;;3.10;;
25810;SDS011;13645;52.460;13.910;2022-11-12T03:31:27;5.50;;;3.08;;
25810;SDS011;13645;52.460;13.910;2022-11-12T03:33:54;5.68;;;3.03;;
25810;SDS011;13645;52.460;13.910;2022-11-12T03:36:21;6.45;;;3.22;;
25810;SDS011;13645;52.460;13.910;2022-11-12T03:38:47;6.15;;;3.60;;
25810;SDS011;13645;52.460;13.910;2022-11-12T03:41:14;6.45;;;3.45;;
25810;SDS011;13645;52.460;13.910;2022-11-12T03:43:41;4.90;;;3.42;;
25810;SDS011;13645;52.460;13.910;2022-11-12T03:46:08;13.60;;;3.53;;
25810;SDS011;13645;52.460;13.910;2022-11-12T03:48:34;6.60;;;3.35;;
25810;SDS011;13645;52.460;13.910;2022-11-12T03:51:01;7.28;;;3.35;;
25810;SDS011;13645;52.460;13.910;2022-11-12T03:53:28;5.30;;;3.22;;
25810;SDS011;13645;52.460;13.910;2022-11-12T03:55:54;6.22;;;3.45;;
25810;SDS011;13645;52.460;13.910;2022-11-12T03:58:21;4.72;;;3.35;;
25810;SDS011;13645;52.460;13.910;2022-11-12T04:00:48;6.78;;;3.53;;
25810;SDS011;13645;52.460;13.910;2022-11-12T04:03:15;10.32;;;3.20;;
25810;SDS011;13645;52.460;13.910;2022-11-12T04:05:42;6.93;;;3.42;;
25810;SDS011;13645;52.460;13.910;2022-11-12T04:08:27;7.13;;;3.20;;
25810;SDS011;13645;52.460;13.910;2022-11-12T04:13:40;6.55;;;3.70;;
25810;SDS011;13645;52.460;13.910;2022-11-12T04:16:11;5.97;;;2.92;;
25810;SDS011;13645;52.460;13.910;2022-11-12T04:18:58;4.28;;;2.83;;
25810;SDS011;13645;52.460;13.910;2022-11-12T04:21:49;6.03;;;3.55;;
25810;SDS011;13645;52.460;13.910;2022-11-12T04:24:25;4.55;;;3.13;;
25810;SDS011;13645;52.460;13.910;2022-11-12T04:27:13;6.78;;;3.15;;
25810;SDS011;13645;52.460;13.910;2022-11-12T04:29:40;6.10;;;3.50;;
25810;SDS011;13645;52.460;13.910;2022-11-12T04:32:27;4.47;;;2.83;;
25810;SDS011;13645;52.460;13.910;2022-11-12T04:34:54;4.78;;;2.83;;
25810;SDS011;13645;52.460;13.910;2022-11-12T04:37:23;6.57;;;3.20;;
25810;SDS011;13645;52.460;13.910;2022-11-12T04:39:52;4.97;;;3.30;;
25810;SDS011;13645;52.460;13.910;2022-11-12T04:42:19;7.47;;;3.40;;
25810;SDS011;13645;52.460;13.910;2022-11-12T04:45:08;8.52;;;3.25;;
25810;SDS011;13645;52.460;13.910;2022-11-12T04:47:36;4.50;;;3.25;;
25810;SDS011;13645;52.460;13.910;2022-11-12T04:50:06;6.63;;;2.72;;
25810;SDS011;13645;52.460;13.910;2022-11-12T04:52:38;7.68;;;3.22;;
25810;SDS011;13645;52.460;13.910;2022-11-12T04:55:05;5.25;;;2.95;;
25810;SDS011;13645;52.460;13.910;2022-11-12T04:57:32;6.55;;;3.03;;
25810;SDS011;13645;52.460;13.910;2022-11-12T04:59:59;4.45;;;3.20;;
25810;SDS011;13645;52.460;13.910;2022-11-12T05:02:26;6.50;;;3.30;;
25810;SDS011;13645;52.460;13.910;2022-11-12T05:04:53;4.97;;;3.17;;
25810;SDS011;13645;52.460;13.910;2022-11-12T05:07:19;7.68;;;3.50;;
25810;SDS011;13645;52.460;13.910;2022-11-12T05:09:46;5.75;;;3.40;;
25810;SDS011;13645;52.460;13.910;2022-11-12T05:12:13;3.97;;;2.97;;
25810;SDS011;13645;52.460;13.910;2022-11-12T05:14:40;3.92;;;2.90;;
25810;SDS011;13645;52.460;13.910;2022-11-12T05:17:06;6.78;;;3.08;;
25810;SDS011;13645;52.460;13.910;2022-11-12T05:19:33;7.63;;;3.40;;
25810;SDS011;13645;52.460;13.910;2022-11-12T05:22:00;6.60;;;2.78;;
25810;SDS011;13645;52.460;13.910;2022-11-12T05:24:47;5.13;;;3.30;;
25810;SDS011;13645;52.460;13.910;2022-11-12T05:27:14;4.63;;;3.28;;
25810;SDS011;13645;52.460;13.910;2022-11-12T05:29:43;6.30;;;3.20;;
25810;SDS011;13645;52.460;13.910;2022-11-12T05:32:14;6.72;;;3.78;;
25810;SDS011;13645;52.460;13.910;2022-11-12T05:34:42;6.20;;;3.72;;
25810;SDS011;13645;52.460;13.910;2022-11-12T05:37:09;5.47;;;3.60;;
25810;SDS011;13645;52.460;13.910;2022-11-12T05:39:37;6.13;;;3.65;;
25810;SDS011;13645;52.460;13.910;2022-11-12T05:42:04;8.60;;;3.72;;
25810;SDS011;13645;52.460;13.910;2022-11-12T05:44:38;5.63;;;3.70;;
25810;SDS011;13645;52.460;13.910;2022-11-12T05:47:05;5.25;;;3.28;;
25810;SDS011;13645;52.460;13.910;2022-11-12T05:49:32;7.55;;;3.85;;
25810;SDS011;13645;52.460;13.910;2022-11-12T05:51:59;8.05;;;3.35;;
25810;SDS011;13645;52.460;13.910;2022-11-12T05:54:25;7.40;;;3.53;;
25810;SDS011;13645;52.460;13.910;2022-11-12T05:56:52;10.52;;;4.20;;
25810;SDS011;13645;52.460;13.910;2022-11-12T05:59:19;10.43;;;5.03;;
25810;SDS011;13645;52.460;13.910;2022-11-12T06:01:46;7.82;;;4.65;;
25810;SDS011;13645;52.460;13.910;2022-11-12T06:04:13;11.93;;;5.10;;
25810;SDS011;13645;52.460;13.910;2022-11-12T06:06:41;15.68;;;5.35;;
25810;SDS011;13645;52.460;13.910;2022-11-12T06:09:09;12.23;;;5.80;;
25810;SDS011;13645;52.460;13.910;2022-11-12T06:11:36;10.63;;;5.47;;
25810;SDS011;13645;52.460;13.910;2022-11-12T06:14:03;13.60;;;6.97;;
25810;SDS011;13645;52.460;13.910;2022-11-12T06:16:30;40.45;;;18.73;;
25810;SDS011;13645;52.460;13.910;2022-11-12T06:18:58;82.80;;;34.92;;
25810;SDS011;13645;52.460;13.910;2022-11-12T06:21:24;94.65;;;41.65;;
25810;SDS011;13645;52.460;13.910;2022-11-12T06:23:56;99.40;;;42.20;;
25810;SDS011;13645;52.460;13.910;2022-11-12T06:26:25;77.07;;;33.60;;
25810;SDS011;13645;52.460;13.910;2022-11-12T06:28:53;58.30;;;26.38;;
25810;SDS011;13645;52.460;13.910;2022-11-12T06:31:21;36.53;;;18.20;;
25810;SDS011;13645;52.460;13.910;2022-11-12T06:33:48;27.88;;;11.93;;
25810;SDS011;13645;52.460;13.910;2022-11-12T06:36:15;30.55;;;14.00;;
25810;SDS011;13645;52.460;13.910;2022-11-12T06:38:44;30.88;;;15.00;;
25810;SDS011;13645;52.460;13.910;2022-11-12T06:41:11;30.92;;;14.50;;
25810;SDS011;13645;52.460;13.910;2022-11-12T06:43:39;26.60;;;11.85;;
25810;SDS011;13645;52.460;13.910;2022-11-12T06:46:08;19.30;;;9.88;;
25810;SDS011;13645;52.460;13.910;2022-11-12T06:51:08;17.05;;;8.35;;
25810;SDS011;13645;52.460;13.910;2022-11-12T06:53:40;14.35;;;7.13;;
25810;SDS011;13645;52.460;13.910;2022-11-12T06:56:07;16.13;;;7.15;;
25810;SDS011;13645;52.460;13.910;2022-11-12T06:58:34;19.77;;;8.43;;
25810;SDS011;13645;52.460;13.910;2022-11-12T07:01:05;13.45;;;7.70;;
25810;SDS011;13645;52.460;13.910;2022-11-12T07:03:37;15.77;;;7.35;;
25810;SDS011;13645;52.460;13.910;2022-11-12T07:06:05;18.02;;;6.93;;
25810;SDS011;13645;52.460;13.910;2022-11-12T07:08:34;15.82;;;7.63;;
25810;SDS011;13645;52.460;13.910;2022-11-12T07:11:01;13.35;;;7.05;;
25810;SDS011;13645;52.460;13.910;2022-11-12T07:13:29;12.45;;;6.55;;
25810;SDS011;13645;52.460;13.910;2022-11-12T07:15:58;15.57;;;7.65;;
25810;SDS011;13645;52.460;13.910;2022-11-12T07:18:26;12.13;;;6.57;;
25810;SDS011;13645;52.460;13.910;2022-11-12T07:21:00;11.30;;;6.65;;
25810;SDS011;13645;52.460;13.910;2022-11-12T07:23:29;11.70;;;7.05;;
25810;SDS011;13645;52.460;13.910;2022-11-12T07:25:58;11.80;;;7.85;;
25810;SDS011;13645;52.460;13.910;2022-11-12T07:28:27;12.00;;;7.68;;
25810;SDS011;13645;52.460;13.910;2022-11-12T07:30:58;10.38;;;7.18;;
25810;SDS011;13645;52.460;13.910;2022-11-12T07:33:26;8.50;;;5.60;;
25810;SDS011;13645;52.460;13.910;2022-11-12T07:35:57;12.43;;;5.50;;
25810;SDS011;13645;52.460;13.910;2022-11-12T07:38:26;9.48;;;5.18;;
25810;SDS011;13645;52.460;13.910;2022-11-12T07:40:58;9.52;;;5.93;;
25810;SDS011;13645;52.460;13.910;2022-11-12T07:43:29;10.75;;;6.85;;
25810;SDS011;13645;52.460;13.910;2022-11-12T07:46:01;11.13;;;6.95;;
25810;SDS011;13645;52.460;13.910;2022-11-12T07:48:36;11.95;;;6.88;;
25810;SDS011;13645;52.460;13.910;2022-11-12T07:53:31;7.07;;;6.03;;
25810;SDS011;13645;52.460;13.910;2022-11-12T07:55:59;11.50;;;6.32;;
25810;SDS011;13645;52.460;13.910;2022-11-12T07:58:28;12.40;;;8.52;;
25810;SDS011;13645;52.460;13.910;2022-11-12T08:00:57;24.17;;;10.55;;
25810;SDS011;13645;52.460;13.910;2022-11-12T08:03:32;17.40;;;10.57;;
25810;SDS011;13645;52.460;13.910;2022-11-12T08:05:59;18.60;;;8.68;;
25810;SDS011;13645;52.460;13.910;2022-11-12T08:08:26;11.07;;;7.97;;
25810;SDS011;13645;52.460;13.910;2022-11-12T08:10:54;11.88;;;7.85;;
25810;SDS011;13645;52.460;13.910;2022-11-12T08:13:22;15.85;;;8.07;;
25810;SDS011;13645;52.460;13.910;2022-11-12T08:15:49;21.23;;;10.85;;
25810;SDS011;13645;52.460;13.910;2022-11-12T08:18:17;16.65;;;9.35;;
25810;SDS011;13645;52.460;13.910;2022-11-12T08:20:44;17.73;;;7.53;;
25810;SDS011;13645;52.460;13.910;2022-11-12T08:23:11;10.07;;;6.95;;
25810;SDS011;13645;52.460;13.910;2022-11-12T08:25:37;10.25;;;6.70;;
25810;SDS011;13645;52.460;13.910;2022-11-12T08:28:04;14.23;;;5.88;;
25810;SDS011;13645;52.460;13.910;2022-11-12T08:30:31;8.98;;;5.72;;
25810;SDS011;13645;52.460;13.910;2022-11-12T08:32:58;14.88;;;5.70;;
25810;SDS011;13645;52.460;13.910;2022-11-12T08:35:30;10.27;;;5.65;;
25810;SDS011;13645;52.460;13.910;2022-11-12T08:37:57;9.25;;;5.93;;
25810;SDS011;13645;52.460;13.910;2022-11-12T08:40:28;11.82;;;6.45;;
25810;SDS011;13645;52.460;13.910;2022-11-12T08:43:02;13.10;;;6.43;;
25810;SDS011;13645;52.460;13.910;2022-11-12T08:45:31;10.07;;;6.35;;
25810;SDS011;13645;52.460;13.910;2022-11-12T08:47:59;14.48;;;8.88;;
25810;SDS011;13645;52.460;13.910;2022-11-12T08:50:27;13.95;;;7.80;;
25810;SDS011;13645;52.460;13.910;2022-11-12T08:53:02;14.63;;;7.95;;
25810;SDS011;13645;52.460;13.910;2022-11-12T08:55:30;11.38;;;7.53;;
25810;SDS011;13645;52.460;13.910;2022-11-12T08:57:58;11.00;;;6.63;;
25810;SDS011;13645;52.460;13.910;2022-11-12T09:00:36;11.25;;;5.65;;
25810;SDS011;13645;52.460;13.910;2022-11-12T09:03:05;12.57;;;6.78;;
25810;SDS011;13645;52.460;13.910;2022-11-12T09:05:34;9.43;;;5.75;;
25810;SDS011;13645;52.460;13.910;2022-11-12T09:08:02;13.43;;;5.60;;
25810;SDS011;13645;52.460;13.910;2022-11-12T09:10:31;9.32;;;6.38;;
25810;SDS011;13645;52.460;13.910;2022-11-12T09:12:58;10.07;;;5.70;;
25810;SDS011;13645;52.460;13.910;2022-11-12T09:15:24;8.25;;;5.75;;
25810;SDS011;13645;52.460;13.910;2022-11-12T09:18:09;15.45;;;6.15;;
25810;SDS011;13645;52.460;13.910;2022-11-12T09:20:37;12.40;;;5.78;;
25810;SDS011;13645;52.460;13.910;2022-11-12T09:23:06;12.60;;;6.63;;
25810;SDS011;13645;52.460;13.910;2022-11-12T09:25:37;12.65;;;6.22;;
25810;SDS011;13645;52.460;13.910;2022-11-12T09:28:12;9.93;;;5.97;;
25810;SDS011;13645;52.460;13.910;2022-11-12T09:30:45;11.32;;;6.43;;
25810;SDS011;13645;52.460;13.910;2022-11-12T09:33:13;9.07;;;5.75;;
25810;SDS011;13645;52.460;13.910;2022-11-12T09:35:41;12.90;;;6.10;;
25810;SDS011;13645;52.460;13.910;2022-11-12T09:38:08;20.15;;;6.85;;
25810;SDS011;13645;52.460;13.910;2022-11-12T09:46:15;16.67;;;7.38;;
25810;SDS011;13645;52.460;13.910;2022-11-12T09:49:01;9.70;;;7.50;;
25810;SDS011;13645;52.460;13.910;2022-11-12T09:51:55;16.15;;;6.57;;
25810;SDS011;13645;52.460;13.910;2022-11-12T09:54:30;17.98;;;7.53;;
25810;SDS011;13645;52.460;13.910;2022-11-12T09:56:58;16.33;;;8.15;;
25810;SDS011;13645;52.460;13.910;2022-11-12T09:59:29;18.80;;;7.85;;
25810;SDS011;13645;52.460;13.910;2022-11-12T10:02:04;22.10;;;8.60;;
25810;SDS011;13645;52.460;13.910;2022-11-12T10:07:57;18.83;;;9.00;;
25810;SDS011;13645;52.460;13.910;2022-11-12T10:15:48;20.95;;;11.23;;
25810;SDS011;13645;52.460;13.910;2022-11-12T10:24:21;20.60;;;10.65;;
25810;SDS011;13645;52.460;13.910;2022-11-12T10:26:49;19.75;;;11.98;;
25810;SDS011;13645;52.460;13.910;2022-11-12T10:29:29;23.90;;;12.38;;
25810;SDS011;13645;52.460;13.910;2022-11-12T10:32:01;23.35;;;13.15;;
25810;SDS011;13645;52.460;13.910;2022-11-12T10:34:28;15.88;;;9.95;;
25810;SDS011;13645;52.460;13.910;2022-11-12T10:36:59;33.75;;;15.52;;
25810;SDS011;13645;52.460;13.910;2022-11-12T10:42:05;39.00;;;20.60;;
25810;SDS011;13645;52.460;13.910;2022-11-12T10:44:34;41.95;;;22.98;;
25810;SDS011;13645;52.460;13.910;2022-11-12T10:50:40;23.75;;;11.52;;
25810;SDS011;13645;52.460;13.910;2022-11-12T10:53:07;24.23;;;11.25;;
25810;SDS011;13645;52.460;13.910;2022-11-12T10:55:37;21.38;;;11.85;;
25810;SDS011;13645;52.460;13.910;2022-11-12T10:58:21;25.65;;;14.57;;
25810;SDS011;13645;52.460;13.910;2022-11-12T11:00:52;22.95;;;12.75;;
25810;SDS011;13645;52.460;13.910;2022-11-12T11:03:22;19.52;;;11.38;;
25810;SDS011;13645;52.460;13.910;2022-11-12T11:08:37;19.63;;;11.98;;
25810;SDS011;13645;52.460;13.910;2022-11-12T11:11:27;22.20;;;11.75;;
25810;SDS011;13645;52.460;13.910;2022-11-12T11:13:57;18.00;;;7.93;;
25810;SDS011;13645;52.460;13.910;2022-11-12T11:16:57;14.60;;;7.20;;
25810;SDS011;13645;52.460;13.910;2022-11-12T11:19:35;13.70;;;7.13;;
25810;SDS011;13645;52.460;13.910;2022-11-12T11:27:40;17.15;;;8.18;;
25810;SDS011;13645;52.460;13.910;2022-11-12T11:30:24;13.38;;;6.88;;
25810;SDS011;13645;52.460;13.910;2022-11-12T11:33:03;9.95;;;6.20;;
25810;SDS011;13645;52.460;13.910;2022-11-12T11:47:09;13.32;;;4.70;;
25810;SDS011;13645;52.460;13.910;2022-11-12T11:50:26;13.73;;;4.22;;
25810;SDS011;13645;52.460;13.910;2022-11-12T11:53:12;12.63;;;4.40;;
25810;SDS011;13645;52.460;13.910;2022-11-12T11:56:20;14.05;;;4.72;;
25810;SDS011;13645;52.460;13.910;2022-11-12T12:01:50;9.23;;;4.32;;
25810;SDS011;13645;52.460;13.910;2022-11-12T12:16:36;11.88;;;4.20;;
25810;SDS011;13645;52.460;13.910;2022-11-12T12:22:17;10.75;;;4.45;;
25810;SDS011;13645;52.460;13.910;2022-11-12T12:24:51;11.30;;;6.63;;
25810;SDS011;13645;52.460;13.910;2022-11-12T12:27:31;11.32;;;4.95;;
25810;SDS011;13645;52.460;13.910;2022-11-12T12:35:06;13.27;;;4.80;;
25810;SDS011;13645;52.460;13.910;2022-11-12T12:38:03;15.48;;;7.85;;
25810;SDS011;13645;52.460;13.910;2022-11-12T12:43:39;12.48;;;5.60;;
25810;SDS011;13645;52.460;13.910;2022-11-12T12:46:20;16.42;;;5.05;;
25810;SDS011;13645;52.460;13.910;2022-11-12T12:48:52;12.60;;;5.10;;
25810;SDS011;13645;52.460;13.910;2022-11-12T12:51:20;9.93;;;4.82;;
25810;SDS011;13645;52.460;13.910;2022-11-12T12:53:47;12.48;;;4.63;;
25810;SDS011;13645;52.460;13.910;2022-11-12T12:58:56;10.25;;;3.72;;
25810;SDS011;13645;52.460;13.910;2022-11-12T13:01:29;8.60;;;4.10;;
25810;SDS011;13645;52.460;13.910;2022-11-12T13:04:05;10.43;;;3.85;;
25810;SDS011;13645;52.460;13.910;2022-11-12T13:06:37;10.18;;;3.50;;
25810;SDS011;13645;52.460;13.910;2022-11-12T13:32:40;10.85;;;4.40;;
25810;SDS011;13645;52.460;13.910;2022-11-12T13:35:20;10.25;;;4.25;;
25810;SDS011;13645;52.460;13.910;2022-11-12T13:37:54;11.10;;;4.03;;
25810;SDS011;13645;52.460;13.910;2022-11-12T13:46:07;14.02;;;5.03;;
25810;SDS011;13645;52.460;13.910;2022-11-12T13:51:41;7.07;;;3.45;;
25810;SDS011;13645;52.460;13.910;2022-11-12T13:57:23;13.10;;;4.35;;
25810;SDS011;13645;52.460;13.910;2022-11-12T14:02:48;12.90;;;7.32;;
25810;SDS011;13645;52.460;13.910;2022-11-12T14:05:27;15.55;;;6.13;;
25810;SDS011;13645;52.460;13.910;2022-11-12T14:10:33;13.77;;;3.85;;
25810;SDS011;13645;52.460;13.910;2022-11-12T14:13:35;8.27;;;3.42;;
25810;SDS011;13645;52.460;13.910;2022-11-12T14:22:13;10.55;;;4.05;;
25810;SDS011;13645;52.460;13.910;2022-11-12T14:24:42;15.43;;;4.57;;
25810;SDS011;13645;52.460;13.910;2022-11-12T14:30:03;35.40;;;14.43;;
25810;SDS011;13645;52.460;13.910;2022-11-12T14:32:36;28.83;;;9.57;;
25810;SDS011;13645;52.460;13.910;2022-11-12T14:37:54;12.95;;;6.22;;
25810;SDS011;13645;52.460;13.910;2022-11-12T14:40:35;10.38;;;4.60;;
25810;SDS011;13645;52.460;13.910;2022-11-12T14:43:15;13.85;;;4.40;;
25810;SDS011;13645;52.460;13.910;2022-11-12T14:46:02;11.90;;;4.28;;
25810;SDS011;13645;52.460;13.910;2022-11-12T14:48:35;12.52;;;4.00;;
25810;SDS011;13645;52.460;13.910;2022-11-12T14:51:12;11.50;;;4.30;;
25810;SDS011;13645;52.460;13.910;2022-11-12T14:53:47;9.45;;;3.85;;
25810;SDS011;13645;52.460;13.910;2022-11-12T14:56:26;9.73;;;4.35;;
25810;SDS011;13645;52.460;13.910;2022-11-12T14:59:11;14.13;;;4.20;;
25810;SDS011;13645;52.460;13.910;2022-11-12T15:01:40;14.65;;;6.57;;
25810;SDS011;13645;52.460;13.910;2022-11-12T15:04:51;19.33;;;6.97;;
25810;SDS011;13645;52.460;13.910;2022-11-12T15:07:28;14.43;;;6.13;;
25810;SDS011;13645;52.460;13.910;2022-11-12T15:09:55;12.25;;;5.35;;
25810;SDS011;13645;52.460;13.910;2022-11-12T15:12:22;12.43;;;5.28;;
25810;SDS011;13645;52.460;13.910;2022-11-12T15:14:52;9.73;;;5.03;;
25810;SDS011;13645;52.460;13.910;2022-11-12T15:17:32;9.98;;;4.78;;
25810;SDS011;13645;52.460;13.910;2022-11-12T15:20:03;9.85;;;5.07;;
25810;SDS011;13645;52.460;13.910;2022-11-12T15:22:38;10.88;;;5.05;;
25810;SDS011;13645;52.460;13.910;2022-11-12T15:27:48;13.25;;;5.47;;
25810;SDS011;13645;52.460;13.910;2022-11-12T15:32:50;11.55;;;5.82;;
25810;SDS011;13645;52.460;13.910;2022-11-12T15:35:59;9.82;;;5.85;;
25810;SDS011;13645;52.460;13.910;2022-11-12T15:38:33;10.82;;;5.88;;
25810;SDS011;13645;52.460;13.910;2022-11-12T15:41:02;10.35;;;6.05;;
25810;SDS011;13645;52.460;13.910;2022-11-12T15:43:36;15.57;;;6.68;;
25810;SDS011;13645;52.460;13.910;2022-11-12T15:46:11;13.20;;;6.40;;
25810;SDS011;13645;52.460;13.910;2022-11-12T15:48:40;12.23;;;6.10;;
25810;SDS011;13645;52.460;13.910;2022-11-12T15:51:10;12.88;;;5.90;;
25810;SDS011;13645;52.460;13.910;2022-11-12T15:53:37;13.32;;;6.20;;
25810;SDS011;13645;52.460;13.910;2022-11-12T15:56:04;14.73;;;6.72;;
25810;SDS011;13645;52.460;13.910;2022-11-12T15:58:34;14.25;;;6.85;;
25810;SDS011;13645;52.460;13.910;2022-11-12T16:01:02;17.48;;;6.70;;
25810;SDS011;13645;52.460;13.910;2022-11-12T16:03:30;11.73;;;6.72;;
25810;SDS011;13645;52.460;13.910;2022-11-12T16:05:57;15.15;;;6.40;;
25810;SDS011;13645;52.460;13.910;2022-11-12T16:08:30;22.20;;;12.95;;
25810;SDS011;13645;52.460;13.910;2022-11-12T16:10:57;14.25;;;8.70;;
25810;SDS011;13645;52.460;13.910;2022-11-12T16:13:29;14.55;;;7.55;;
25810;SDS011;13645;52.460;13.910;2022-11-12T16:16:01;6.28;;;4.50;;
25810;SDS011;13645;52.460;13.910;2022-11-12T16:18:31;8.45;;;5.25;;
25810;SDS011;13645;52.460;13.910;2022-11-12T16:20:58;13.05;;;7.57;;
25810;SDS011;13645;52.460;13.910;2022-11-12T16:23:25;11.73;;;7.50;;
25810;SDS011;13645;52.460;13.910;2022-11-12T16:25:52;8.93;;;6.28;;
25810;SDS011;13645;52.460;13.910;2022-11-12T16:28:19;8.00;;;5.32;;
25810;SDS011;13645;52.460;13.910;2022-11-12T16:30:46;5.90;;;3.95;;
25810;SDS011;13645;52.460;13.910;2022-11-12T16:33:15;6.53;;;3.70;;
25810;SDS011;13645;52.460;13.910;2022-11-12T16:35:42;4.57;;;3.67;;
25810;SDS011;13645;52.460;13.910;2022-11-12T16:38:12;4.78;;;2.40;;
25810;SDS011;13645;52.460;13.910;2022-11-12T16:40:41;30.27;;;2.00;;
25810;SDS011;13645;52.460;13.910;2022-11-12T16:43:08;11.65;;;1.77;;
25810;SDS011;13645;52.460;13.910;2022-11-12T16:45:39;36.97;;;2.40;;
25810;SDS011;13645;52.460;13.910;2022-11-12T16:48:25;11.02;;;1.73;;
25810;SDS011;13645;52.460;13.910;2022-11-12T16:50:52;30.10;;;2.10;;
25810;SDS011;13645;52.460;13.910;2022-11-12T16:53:19;21.95;;;3.55;;
25810;SDS011;13645;52.460;13.910;2022-11-12T16:55:45;24.50;;;2.72;;
25810;SDS011;13645;52.460;13.910;2022-11-12T16:58:13;34.83;;;2.60;;
25810;SDS011;13645;52.460;13.910;2022-11-12T17:00:40;24.02;;;2.10;;
25810;SDS011;13645;52.460;13.910;2022-11-12T17:03:11;37.88;;;2.13;;
25810;SDS011;13645;52.460;13.910;2022-11-12T17:05:39;18.85;;;1.70;;
25810;SDS011;13645;52.460;13.910;2022-11-12T17:08:05;5.85;;;1.27;;
25810;SDS011;13645;52.460;13.910;2022-11-12T17:10:34;9.15;;;2.08;;
25810;SDS011;13645;52.460;13.910;2022-11-12T17:13:00;9.05;;;2.22;;
25810;SDS011;13645;52.460;13.910;2022-11-12T17:15:27;16.98;;;5.35;;